sensor_id;sensor_type;location;lat;lon;timestamp;P1;durP1;ratioP1;P2;durP2;ratioP2
27792;SDS011;15174;48.190;11.462;2024-03-06T00:02:14;33.75;;;16.75;;
27792;SDS011;15174;48.190;11.462;2024-03-06T00:04:41;33.78;;;17.00;;
27792;SDS011;15174;48.190;11.462;2024-03-06T00:07:07;31.88;;;16.58;;
27792;SDS011;15174;48.190;11.462;2024-03-06T00:09:34;34.85;;;17.92;;
27792;SDS011;15174;48.190;11.462;2024-03-06T00:12:00;37.08;;;19.08;;
27792;SDS011;15174;48.190;11.462;2024-03-06T00:14:26;33.03;;;18.10;;
27792;SDS011;15174;48.190;11.462;2024-03-06T00:16:51;42.90;;;17.63;;
27792;SDS011;15174;48.190;11.462;2024-03-06T00:19:17;39.60;;;17.90;;
27792;SDS011;15174;48.190;11.462;2024-03-06T00:21:46;34.50;;;17.17;;
27792;SDS011;15174;48.190;11.462;2024-03-06T00:24:15;38.72;;;18.23;;
27792;SDS011;15174;48.190;11.462;2024-03-06T00:26:44;38.00;;;17.15;;
27792;SDS011;15174;48.190;11.462;2024-03-06T00:29:12;32.85;;;16.80;;
27792;SDS011;15174;48.190;11.462;2024-03-06T00:31:44;36.70;;;17.83;;
27792;SDS011;15174;48.190;11.462;2024-03-06T00:34:11;39.35;;;19.58;;
27792;SDS011;15174;48.190;11.462;2024-03-06T00:36:42;41.63;;;18.27;;
27792;SDS011;15174;48.190;11.462;2024-03-06T00:39:09;38.33;;;18.40;;
27792;SDS011;15174;48.190;11.462;2024-03-06T00:41:35;39.72;;;18.55;;
27792;SDS011;15174;48.190;11.462;2024-03-06T00:44:01;38.60;;;19.02;;
27792;SDS011;15174;48.190;11.462;2024-03-06T00:46:27;40.17;;;19.25;;
27792;SDS011;15174;48.190;11.462;2024-03-06T00:48:53;30.65;;;16.15;;
27792;SDS011;15174;48.190;11.462;2024-03-06T00:51:19;35.05;;;18.15;;
27792;SDS011;15174;48.190;11.462;2024-03-06T00:53:45;34.00;;;17.42;;
27792;SDS011;15174;48.190;11.462;2024-03-06T00:56:11;36.33;;;18.38;;
27792;SDS011;15174;48.190;11.462;2024-03-06T00:58:37;37.13;;;17.63;;
27792;SDS011;15174;48.190;11.462;2024-03-06T01:01:03;37.90;;;17.77;;
27792;SDS011;15174;48.190;11.462;2024-03-06T01:03:29;39.15;;;18.40;;
27792;SDS011;15174;48.190;11.462;2024-03-06T01:05:55;32.63;;;17.17;;
27792;SDS011;15174;48.190;11.462;2024-03-06T01:08:22;35.90;;;17.55;;
27792;SDS011;15174;48.190;11.462;2024-03-06T01:13:15;36.05;;;17.52;;
27792;SDS011;15174;48.190;11.462;2024-03-06T01:15:42;40.70;;;18.98;;
27792;SDS011;15174;48.190;11.462;2024-03-06T01:18:08;38.05;;;18.55;;
27792;SDS011;15174;48.190;11.462;2024-03-06T01:20:34;40.38;;;19.48;;
27792;SDS011;15174;48.190;11.462;2024-03-06T01:23:01;38.95;;;19.25;;
27792;SDS011;15174;48.190;11.462;2024-03-06T01:25:27;38.95;;;20.85;;
27792;SDS011;15174;48.190;11.462;2024-03-06T01:27:53;38.28;;;18.40;;
27792;SDS011;15174;48.190;11.462;2024-03-06T01:30:19;40.33;;;20.17;;
27792;SDS011;15174;48.190;11.462;2024-03-06T01:32:45;43.80;;;19.67;;
27792;SDS011;15174;48.190;11.462;2024-03-06T01:35:11;37.00;;;18.58;;
27792;SDS011;15174;48.190;11.462;2024-03-06T01:37:37;39.17;;;18.60;;
27792;SDS011;15174;48.190;11.462;2024-03-06T01:40:03;46.30;;;21.45;;
27792;SDS011;15174;48.190;11.462;2024-03-06T01:42:30;37.63;;;19.50;;
27792;SDS011;15174;48.190;11.462;2024-03-06T01:44:56;43.58;;;20.17;;
27792;SDS011;15174;48.190;11.462;2024-03-06T01:47:22;37.90;;;19.63;;
27792;SDS011;15174;48.190;11.462;2024-03-06T01:49:48;39.20;;;19.27;;
27792;SDS011;15174;48.190;11.462;2024-03-06T01:52:14;47.00;;;21.20;;
27792;SDS011;15174;48.190;11.462;2024-03-06T01:54:41;43.10;;;21.17;;
27792;SDS011;15174;48.190;11.462;2024-03-06T01:57:08;48.10;;;20.45;;
27792;SDS011;15174;48.190;11.462;2024-03-06T01:59:34;42.03;;;19.33;;
27792;SDS011;15174;48.190;11.462;2024-03-06T02:02:00;49.70;;;22.48;;
27792;SDS011;15174;48.190;11.462;2024-03-06T02:04:27;52.45;;;22.23;;
27792;SDS011;15174;48.190;11.462;2024-03-06T02:06:53;51.20;;;22.17;;
27792;SDS011;15174;48.190;11.462;2024-03-06T02:09:19;52.00;;;23.13;;
27792;SDS011;15174;48.190;11.462;2024-03-06T02:11:46;54.05;;;22.80;;
27792;SDS011;15174;48.190;11.462;2024-03-06T02:14:12;54.42;;;23.83;;
27792;SDS011;15174;48.190;11.462;2024-03-06T02:16:38;47.67;;;21.98;;
27792;SDS011;15174;48.190;11.462;2024-03-06T02:19:04;53.08;;;23.08;;
27792;SDS011;15174;48.190;11.462;2024-03-06T02:21:30;59.03;;;25.33;;
27792;SDS011;15174;48.190;11.462;2024-03-06T02:23:56;58.38;;;23.58;;
27792;SDS011;15174;48.190;11.462;2024-03-06T02:26:23;47.78;;;22.65;;
27792;SDS011;15174;48.190;11.462;2024-03-06T02:28:49;54.88;;;23.42;;
27792;SDS011;15174;48.190;11.462;2024-03-06T02:31:16;63.67;;;24.55;;
27792;SDS011;15174;48.190;11.462;2024-03-06T02:33:45;53.22;;;23.08;;
27792;SDS011;15174;48.190;11.462;2024-03-06T02:36:12;53.22;;;23.75;;
27792;SDS011;15174;48.190;11.462;2024-03-06T02:38:39;51.80;;;23.23;;
27792;SDS011;15174;48.190;11.462;2024-03-06T02:41:05;54.63;;;22.75;;
27792;SDS011;15174;48.190;11.462;2024-03-06T02:43:35;60.85;;;24.52;;
27792;SDS011;15174;48.190;11.462;2024-03-06T02:46:01;57.25;;;24.25;;
27792;SDS011;15174;48.190;11.462;2024-03-06T02:48:27;56.25;;;24.30;;
27792;SDS011;15174;48.190;11.462;2024-03-06T02:50:54;56.38;;;24.33;;
27792;SDS011;15174;48.190;11.462;2024-03-06T02:53:20;52.20;;;23.02;;
27792;SDS011;15174;48.190;11.462;2024-03-06T02:55:46;52.47;;;22.88;;
27792;SDS011;15174;48.190;11.462;2024-03-06T02:58:12;61.50;;;23.08;;
27792;SDS011;15174;48.190;11.462;2024-03-06T03:00:42;72.47;;;23.42;;
27792;SDS011;15174;48.190;11.462;2024-03-06T03:03:08;62.67;;;23.27;;
27792;SDS011;15174;48.190;11.462;2024-03-06T03:05:37;48.38;;;21.67;;
27792;SDS011;15174;48.190;11.462;2024-03-06T03:08:03;50.15;;;21.15;;
27792;SDS011;15174;48.190;11.462;2024-03-06T03:10:30;59.07;;;23.47;;
27792;SDS011;15174;48.190;11.462;2024-03-06T03:12:56;52.53;;;21.65;;
27792;SDS011;15174;48.190;11.462;2024-03-06T03:15:22;57.15;;;22.50;;
27792;SDS011;15174;48.190;11.462;2024-03-06T03:17:48;57.67;;;21.45;;
27792;SDS011;15174;48.190;11.462;2024-03-06T03:20:14;60.95;;;23.80;;
27792;SDS011;15174;48.190;11.462;2024-03-06T03:22:42;59.25;;;24.45;;
27792;SDS011;15174;48.190;11.462;2024-03-06T03:25:09;51.97;;;22.30;;
27792;SDS011;15174;48.190;11.462;2024-03-06T03:27:41;60.08;;;22.30;;
27792;SDS011;15174;48.190;11.462;2024-03-06T03:30:12;60.42;;;23.67;;
27792;SDS011;15174;48.190;11.462;2024-03-06T03:32:38;55.25;;;22.40;;
27792;SDS011;15174;48.190;11.462;2024-03-06T03:35:05;63.00;;;23.10;;
27792;SDS011;15174;48.190;11.462;2024-03-06T03:37:31;57.03;;;22.20;;
27792;SDS011;15174;48.190;11.462;2024-03-06T03:39:57;64.97;;;24.30;;
27792;SDS011;15174;48.190;11.462;2024-03-06T03:42:23;61.28;;;23.95;;
27792;SDS011;15174;48.190;11.462;2024-03-06T03:44:50;61.50;;;22.70;;
27792;SDS011;15174;48.190;11.462;2024-03-06T03:47:17;60.75;;;22.52;;
27792;SDS011;15174;48.190;11.462;2024-03-06T03:49:43;62.85;;;23.35;;
27792;SDS011;15174;48.190;11.462;2024-03-06T03:52:09;65.25;;;22.95;;
27792;SDS011;15174;48.190;11.462;2024-03-06T03:54:35;60.58;;;23.98;;
27792;SDS011;15174;48.190;11.462;2024-03-06T03:57:01;56.67;;;23.15;;
27792;SDS011;15174;48.190;11.462;2024-03-06T03:59:27;69.25;;;24.08;;
27792;SDS011;15174;48.190;11.462;2024-03-06T04:01:53;61.92;;;24.60;;
27792;SDS011;15174;48.190;11.462;2024-03-06T04:04:22;70.53;;;25.15;;
27792;SDS011;15174;48.190;11.462;2024-03-06T04:06:48;62.50;;;25.02;;
27792;SDS011;15174;48.190;11.462;2024-03-06T04:09:15;62.80;;;23.75;;
27792;SDS011;15174;48.190;11.462;2024-03-06T04:11:41;64.00;;;24.38;;
27792;SDS011;15174;48.190;11.462;2024-03-06T04:14:07;63.28;;;24.17;;
27792;SDS011;15174;48.190;11.462;2024-03-06T04:16:34;57.03;;;22.48;;
27792;SDS011;15174;48.190;11.462;2024-03-06T04:19:00;60.03;;;22.65;;
27792;SDS011;15174;48.190;11.462;2024-03-06T04:21:27;65.35;;;23.42;;
27792;SDS011;15174;48.190;11.462;2024-03-06T04:23:53;74.55;;;24.73;;
27792;SDS011;15174;48.190;11.462;2024-03-06T04:26:19;57.95;;;23.60;;
27792;SDS011;15174;48.190;11.462;2024-03-06T04:28:45;59.10;;;22.35;;
27792;SDS011;15174;48.190;11.462;2024-03-06T04:31:11;57.20;;;21.95;;
27792;SDS011;15174;48.190;11.462;2024-03-06T04:33:37;65.65;;;22.42;;
27792;SDS011;15174;48.190;11.462;2024-03-06T04:36:04;53.40;;;21.70;;
27792;SDS011;15174;48.190;11.462;2024-03-06T04:38:33;54.42;;;22.10;;
27792;SDS011;15174;48.190;11.462;2024-03-06T04:40:59;63.90;;;24.17;;
27792;SDS011;15174;48.190;11.462;2024-03-06T04:43:25;69.72;;;23.95;;
27792;SDS011;15174;48.190;11.462;2024-03-06T04:45:51;57.70;;;22.40;;
27792;SDS011;15174;48.190;11.462;2024-03-06T04:48:17;58.10;;;22.42;;
27792;SDS011;15174;48.190;11.462;2024-03-06T04:50:43;67.30;;;23.92;;
27792;SDS011;15174;48.190;11.462;2024-03-06T04:53:09;59.65;;;23.08;;
27792;SDS011;15174;48.190;11.462;2024-03-06T04:55:36;62.53;;;23.23;;
27792;SDS011;15174;48.190;11.462;2024-03-06T04:58:02;67.55;;;22.40;;
27792;SDS011;15174;48.190;11.462;2024-03-06T05:00:28;55.33;;;21.95;;
27792;SDS011;15174;48.190;11.462;2024-03-06T05:02:55;62.28;;;23.65;;
27792;SDS011;15174;48.190;11.462;2024-03-06T05:05:21;63.95;;;21.58;;
27792;SDS011;15174;48.190;11.462;2024-03-06T05:07:50;61.33;;;23.55;;
27792;SDS011;15174;48.190;11.462;2024-03-06T05:10:17;62.53;;;22.60;;
27792;SDS011;15174;48.190;11.462;2024-03-06T05:12:43;56.80;;;22.02;;
27792;SDS011;15174;48.190;11.462;2024-03-06T05:15:09;61.65;;;23.50;;
27792;SDS011;15174;48.190;11.462;2024-03-06T05:17:35;56.58;;;21.45;;
27792;SDS011;15174;48.190;11.462;2024-03-06T05:20:01;59.00;;;22.88;;
27792;SDS011;15174;48.190;11.462;2024-03-06T05:22:29;61.20;;;23.73;;
27792;SDS011;15174;48.190;11.462;2024-03-06T05:24:55;55.13;;;21.15;;
27792;SDS011;15174;48.190;11.462;2024-03-06T05:27:21;59.20;;;23.05;;
27792;SDS011;15174;48.190;11.462;2024-03-06T05:29:47;64.30;;;22.35;;
27792;SDS011;15174;48.190;11.462;2024-03-06T05:32:13;61.72;;;21.52;;
27792;SDS011;15174;48.190;11.462;2024-03-06T05:34:39;60.72;;;22.95;;
27792;SDS011;15174;48.190;11.462;2024-03-06T05:37:06;60.22;;;23.67;;
27792;SDS011;15174;48.190;11.462;2024-03-06T05:39:32;72.68;;;22.63;;
27792;SDS011;15174;48.190;11.462;2024-03-06T05:42:02;59.35;;;23.15;;
27792;SDS011;15174;48.190;11.462;2024-03-06T05:44:28;55.85;;;22.23;;
27792;SDS011;15174;48.190;11.462;2024-03-06T05:46:55;56.85;;;21.55;;
27792;SDS011;15174;48.190;11.462;2024-03-06T05:49:21;57.35;;;20.67;;
27792;SDS011;15174;48.190;11.462;2024-03-06T05:51:47;60.92;;;22.00;;
27792;SDS011;15174;48.190;11.462;2024-03-06T05:54:14;60.05;;;23.05;;
27792;SDS011;15174;48.190;11.462;2024-03-06T05:56:40;54.55;;;20.48;;
27792;SDS011;15174;48.190;11.462;2024-03-06T05:59:07;63.10;;;21.98;;
27792;SDS011;15174;48.190;11.462;2024-03-06T06:01:34;65.82;;;23.35;;
27792;SDS011;15174;48.190;11.462;2024-03-06T06:04:00;59.97;;;21.25;;
27792;SDS011;15174;48.190;11.462;2024-03-06T06:06:26;55.45;;;19.80;;
27792;SDS011;15174;48.190;11.462;2024-03-06T06:08:52;54.03;;;20.25;;
27792;SDS011;15174;48.190;11.462;2024-03-06T06:11:19;57.80;;;22.23;;
27792;SDS011;15174;48.190;11.462;2024-03-06T06:13:45;60.28;;;20.27;;
27792;SDS011;15174;48.190;11.462;2024-03-06T06:16:11;52.03;;;21.15;;
27792;SDS011;15174;48.190;11.462;2024-03-06T06:18:39;61.85;;;19.88;;
27792;SDS011;15174;48.190;11.462;2024-03-06T06:21:07;56.47;;;20.63;;
27792;SDS011;15174;48.190;11.462;2024-03-06T06:23:33;53.28;;;19.90;;
27792;SDS011;15174;48.190;11.462;2024-03-06T06:25:59;50.42;;;17.77;;
27792;SDS011;15174;48.190;11.462;2024-03-06T06:28:25;52.55;;;21.17;;
27792;SDS011;15174;48.190;11.462;2024-03-06T06:30:51;54.22;;;19.48;;
27792;SDS011;15174;48.190;11.462;2024-03-06T06:33:20;49.13;;;17.98;;
27792;SDS011;15174;48.190;11.462;2024-03-06T06:35:47;49.08;;;19.65;;
27792;SDS011;15174;48.190;11.462;2024-03-06T06:38:13;45.00;;;18.13;;
27792;SDS011;15174;48.190;11.462;2024-03-06T06:40:39;52.33;;;20.33;;
27792;SDS011;15174;48.190;11.462;2024-03-06T06:43:08;32.25;;;13.98;;
27792;SDS011;15174;48.190;11.462;2024-03-06T06:45:34;30.88;;;13.45;;
27792;SDS011;15174;48.190;11.462;2024-03-06T06:48:00;37.20;;;14.35;;
27792;SDS011;15174;48.190;11.462;2024-03-06T06:50:26;45.13;;;18.27;;
27792;SDS011;15174;48.190;11.462;2024-03-06T06:52:52;39.47;;;15.10;;
27792;SDS011;15174;48.190;11.462;2024-03-06T06:55:18;36.55;;;13.57;;
27792;SDS011;15174;48.190;11.462;2024-03-06T06:57:47;41.55;;;16.35;;
27792;SDS011;15174;48.190;11.462;2024-03-06T07:00:14;49.55;;;17.80;;
27792;SDS011;15174;48.190;11.462;2024-03-06T07:02:43;34.50;;;16.27;;
27792;SDS011;15174;48.190;11.462;2024-03-06T07:05:10;57.90;;;17.88;;
27792;SDS011;15174;48.190;11.462;2024-03-06T07:07:36;55.53;;;19.73;;
27792;SDS011;15174;48.190;11.462;2024-03-06T07:10:03;50.13;;;16.85;;
27792;SDS011;15174;48.190;11.462;2024-03-06T07:12:29;50.33;;;18.15;;
27792;SDS011;15174;48.190;11.462;2024-03-06T07:14:56;50.42;;;17.83;;
27792;SDS011;15174;48.190;11.462;2024-03-06T07:17:22;51.88;;;18.20;;
27792;SDS011;15174;48.190;11.462;2024-03-06T07:19:48;54.38;;;16.98;;
27792;SDS011;15174;48.190;11.462;2024-03-06T07:22:14;50.88;;;18.23;;
27792;SDS011;15174;48.190;11.462;2024-03-06T07:24:40;55.63;;;20.42;;
27792;SDS011;15174;48.190;11.462;2024-03-06T07:27:06;61.08;;;21.05;;
27792;SDS011;15174;48.190;11.462;2024-03-06T07:29:36;59.40;;;20.77;;
27792;SDS011;15174;48.190;11.462;2024-03-06T07:32:02;50.00;;;18.70;;
27792;SDS011;15174;48.190;11.462;2024-03-06T07:34:30;61.25;;;21.27;;
27792;SDS011;15174;48.190;11.462;2024-03-06T07:36:56;52.83;;;20.38;;
27792;SDS011;15174;48.190;11.462;2024-03-06T07:39:24;49.53;;;17.67;;
27792;SDS011;15174;48.190;11.462;2024-03-06T07:41:52;54.05;;;18.70;;
27792;SDS011;15174;48.190;11.462;2024-03-06T07:44:19;45.92;;;17.58;;
27792;SDS011;15174;48.190;11.462;2024-03-06T07:46:45;44.88;;;17.35;;
27792;SDS011;15174;48.190;11.462;2024-03-06T07:49:13;42.45;;;15.90;;
27792;SDS011;15174;48.190;11.462;2024-03-06T07:51:41;31.95;;;14.63;;
27792;SDS011;15174;48.190;11.462;2024-03-06T07:54:08;20.80;;;10.95;;
27792;SDS011;15174;48.190;11.462;2024-03-06T07:56:35;25.35;;;11.25;;
27792;SDS011;15174;48.190;11.462;2024-03-06T07:59:01;17.63;;;9.32;;
27792;SDS011;15174;48.190;11.462;2024-03-06T08:01:28;12.90;;;7.75;;
27792;SDS011;15174;48.190;11.462;2024-03-06T08:03:54;15.40;;;8.13;;
27792;SDS011;15174;48.190;11.462;2024-03-06T08:06:20;16.83;;;8.60;;
27792;SDS011;15174;48.190;11.462;2024-03-06T08:08:46;15.57;;;8.60;;
27792;SDS011;15174;48.190;11.462;2024-03-06T08:11:15;14.35;;;7.30;;
27792;SDS011;15174;48.190;11.462;2024-03-06T08:13:42;14.25;;;6.95;;
27792;SDS011;15174;48.190;11.462;2024-03-06T08:16:09;12.18;;;7.00;;
27792;SDS011;15174;48.190;11.462;2024-03-06T08:18:36;11.13;;;6.22;;
27792;SDS011;15174;48.190;11.462;2024-03-06T08:21:02;13.70;;;7.15;;
27792;SDS011;15174;48.190;11.462;2024-03-06T08:25:56;12.88;;;7.03;;
27792;SDS011;15174;48.190;11.462;2024-03-06T08:28:22;12.57;;;5.85;;
27792;SDS011;15174;48.190;11.462;2024-03-06T08:30:48;13.05;;;6.70;;
27792;SDS011;15174;48.190;11.462;2024-03-06T08:33:14;11.95;;;6.57;;
27792;SDS011;15174;48.190;11.462;2024-03-06T08:35:41;14.68;;;6.93;;
27792;SDS011;15174;48.190;11.462;2024-03-06T08:38:07;14.02;;;8.05;;
27792;SDS011;15174;48.190;11.462;2024-03-06T08:40:33;17.85;;;8.65;;
27792;SDS011;15174;48.190;11.462;2024-03-06T08:42:59;14.82;;;7.90;;
27792;SDS011;15174;48.190;11.462;2024-03-06T08:45:25;14.32;;;7.82;;
27792;SDS011;15174;48.190;11.462;2024-03-06T08:47:52;14.38;;;8.50;;
27792;SDS011;15174;48.190;11.462;2024-03-06T08:50:21;16.17;;;7.80;;
27792;SDS011;15174;48.190;11.462;2024-03-06T08:52:47;12.20;;;7.38;;
27792;SDS011;15174;48.190;11.462;2024-03-06T08:55:13;15.88;;;7.85;;
27792;SDS011;15174;48.190;11.462;2024-03-06T08:57:39;11.82;;;7.30;;
27792;SDS011;15174;48.190;11.462;2024-03-06T09:00:06;21.80;;;10.45;;
27792;SDS011;15174;48.190;11.462;2024-03-06T09:02:35;29.73;;;13.43;;
27792;SDS011;15174;48.190;11.462;2024-03-06T09:05:03;37.47;;;15.82;;
27792;SDS011;15174;48.190;11.462;2024-03-06T09:07:29;40.65;;;18.50;;
27792;SDS011;15174;48.190;11.462;2024-03-06T09:09:55;49.03;;;19.70;;
27792;SDS011;15174;48.190;11.462;2024-03-06T09:12:22;50.45;;;20.88;;
27792;SDS011;15174;48.190;11.462;2024-03-06T09:14:48;57.60;;;19.50;;
27792;SDS011;15174;48.190;11.462;2024-03-06T09:17:14;56.50;;;21.13;;
27792;SDS011;15174;48.190;11.462;2024-03-06T09:19:40;50.42;;;20.45;;
27792;SDS011;15174;48.190;11.462;2024-03-06T09:22:07;44.70;;;16.42;;
27792;SDS011;15174;48.190;11.462;2024-03-06T09:24:33;34.13;;;14.77;;
27792;SDS011;15174;48.190;11.462;2024-03-06T09:27:03;39.95;;;15.30;;
27792;SDS011;15174;48.190;11.462;2024-03-06T09:29:29;28.17;;;13.15;;
27792;SDS011;15174;48.190;11.462;2024-03-06T09:31:55;26.30;;;12.18;;
27792;SDS011;15174;48.190;11.462;2024-03-06T09:34:22;26.33;;;11.18;;
27792;SDS011;15174;48.190;11.462;2024-03-06T09:36:49;22.70;;;11.02;;
27792;SDS011;15174;48.190;11.462;2024-03-06T09:39:16;23.70;;;11.15;;
27792;SDS011;15174;48.190;11.462;2024-03-06T09:41:45;25.05;;;10.32;;
27792;SDS011;15174;48.190;11.462;2024-03-06T09:44:11;17.92;;;9.90;;
27792;SDS011;15174;48.190;11.462;2024-03-06T09:46:39;19.17;;;9.52;;
27792;SDS011;15174;48.190;11.462;2024-03-06T09:49:06;18.42;;;9.38;;
27792;SDS011;15174;48.190;11.462;2024-03-06T09:51:33;19.13;;;9.43;;
27792;SDS011;15174;48.190;11.462;2024-03-06T09:54:00;16.85;;;9.02;;
27792;SDS011;15174;48.190;11.462;2024-03-06T09:56:27;16.10;;;9.20;;
27792;SDS011;15174;48.190;11.462;2024-03-06T09:58:53;17.00;;;8.88;;
27792;SDS011;15174;48.190;11.462;2024-03-06T10:01:20;16.35;;;9.02;;
27792;SDS011;15174;48.190;11.462;2024-03-06T10:03:46;17.73;;;7.88;;
27792;SDS011;15174;48.190;11.462;2024-03-06T10:06:12;16.88;;;7.57;;
27792;SDS011;15174;48.190;11.462;2024-03-06T10:08:41;18.95;;;8.63;;
27792;SDS011;15174;48.190;11.462;2024-03-06T10:11:08;12.02;;;6.90;;
27792;SDS011;15174;48.190;11.462;2024-03-06T10:13:35;16.20;;;6.82;;
27792;SDS011;15174;48.190;11.462;2024-03-06T10:16:02;13.23;;;6.88;;
27792;SDS011;15174;48.190;11.462;2024-03-06T10:18:29;13.17;;;8.03;;
27792;SDS011;15174;48.190;11.462;2024-03-06T10:20:55;14.93;;;7.60;;
27792;SDS011;15174;48.190;11.462;2024-03-06T10:23:21;12.82;;;7.28;;
27792;SDS011;15174;48.190;11.462;2024-03-06T10:25:48;11.48;;;6.25;;
27792;SDS011;15174;48.190;11.462;2024-03-06T10:28:18;16.33;;;7.28;;
27792;SDS011;15174;48.190;11.462;2024-03-06T10:30:44;11.80;;;7.50;;
27792;SDS011;15174;48.190;11.462;2024-03-06T10:33:14;13.15;;;6.97;;
27792;SDS011;15174;48.190;11.462;2024-03-06T10:35:41;11.85;;;6.85;;
27792;SDS011;15174;48.190;11.462;2024-03-06T10:38:07;14.15;;;7.30;;
27792;SDS011;15174;48.190;11.462;2024-03-06T10:40:34;14.27;;;7.45;;
27792;SDS011;15174;48.190;11.462;2024-03-06T10:43:01;17.65;;;9.20;;
27792;SDS011;15174;48.190;11.462;2024-03-06T10:45:40;22.25;;;10.18;;
27792;SDS011;15174;48.190;11.462;2024-03-06T10:48:07;15.77;;;7.72;;
27792;SDS011;15174;48.190;11.462;2024-03-06T10:50:37;15.18;;;7.88;;
27792;SDS011;15174;48.190;11.462;2024-03-06T10:53:05;14.23;;;7.13;;
27792;SDS011;15174;48.190;11.462;2024-03-06T10:55:33;16.23;;;7.45;;
27792;SDS011;15174;48.190;11.462;2024-03-06T10:58:00;13.65;;;7.25;;
27792;SDS011;15174;48.190;11.462;2024-03-06T11:00:26;14.68;;;7.05;;
27792;SDS011;15174;48.190;11.462;2024-03-06T11:02:54;14.27;;;6.90;;
27792;SDS011;15174;48.190;11.462;2024-03-06T11:05:20;9.63;;;6.00;;
27792;SDS011;15174;48.190;11.462;2024-03-06T11:07:47;11.32;;;6.88;;
27792;SDS011;15174;48.190;11.462;2024-03-06T11:10:13;9.57;;;5.40;;
27792;SDS011;15174;48.190;11.462;2024-03-06T11:12:41;14.13;;;6.43;;
27792;SDS011;15174;48.190;11.462;2024-03-06T11:15:14;16.65;;;7.40;;
27792;SDS011;15174;48.190;11.462;2024-03-06T11:17:41;12.00;;;7.07;;
27792;SDS011;15174;48.190;11.462;2024-03-06T11:20:16;14.13;;;6.57;;
27792;SDS011;15174;48.190;11.462;2024-03-06T11:28:09;14.73;;;7.20;;
27792;SDS011;15174;48.190;11.462;2024-03-06T11:30:46;9.05;;;5.47;;
27792;SDS011;15174;48.190;11.462;2024-03-06T11:33:12;10.48;;;5.82;;
27792;SDS011;15174;48.190;11.462;2024-03-06T11:35:43;10.55;;;6.20;;
27792;SDS011;15174;48.190;11.462;2024-03-06T11:38:16;12.98;;;6.47;;
27792;SDS011;15174;48.190;11.462;2024-03-06T11:40:48;18.15;;;6.53;;
27792;SDS011;15174;48.190;11.462;2024-03-06T11:43:26;9.25;;;5.57;;
27792;SDS011;15174;48.190;11.462;2024-03-06T11:45:53;10.68;;;5.90;;
27792;SDS011;15174;48.190;11.462;2024-03-06T11:48:19;15.52;;;7.70;;
27792;SDS011;15174;48.190;11.462;2024-03-06T11:50:47;18.58;;;8.02;;
27792;SDS011;15174;48.190;11.462;2024-03-06T11:53:14;15.25;;;7.30;;
27792;SDS011;15174;48.190;11.462;2024-03-06T11:55:41;14.90;;;6.80;;
27792;SDS011;15174;48.190;11.462;2024-03-06T11:58:07;13.35;;;7.50;;
27792;SDS011;15174;48.190;11.462;2024-03-06T12:00:37;12.73;;;7.20;;
27792;SDS011;15174;48.190;11.462;2024-03-06T12:03:03;16.80;;;7.28;;
27792;SDS011;15174;48.190;11.462;2024-03-06T12:05:30;17.25;;;8.45;;
27792;SDS011;15174;48.190;11.462;2024-03-06T12:07:57;13.45;;;7.60;;
27792;SDS011;15174;48.190;11.462;2024-03-06T12:10:23;12.98;;;6.68;;
27792;SDS011;15174;48.190;11.462;2024-03-06T12:12:49;12.15;;;6.72;;
27792;SDS011;15174;48.190;11.462;2024-03-06T12:15:15;11.98;;;6.65;;
27792;SDS011;15174;48.190;11.462;2024-03-06T12:17:44;14.75;;;7.72;;
27792;SDS011;15174;48.190;11.462;2024-03-06T12:20:17;12.68;;;6.72;;
27792;SDS011;15174;48.190;11.462;2024-03-06T12:22:53;18.30;;;8.00;;
27792;SDS011;15174;48.190;11.462;2024-03-06T12:25:21;17.95;;;7.65;;
27792;SDS011;15174;48.190;11.462;2024-03-06T12:27:47;11.25;;;6.43;;
27792;SDS011;15174;48.190;11.462;2024-03-06T12:30:17;13.20;;;7.05;;
27792;SDS011;15174;48.190;11.462;2024-03-06T12:32:44;13.68;;;7.32;;
27792;SDS011;15174;48.190;11.462;2024-03-06T12:35:10;15.15;;;8.10;;
27792;SDS011;15174;48.190;11.462;2024-03-06T12:37:36;20.05;;;8.32;;
27792;SDS011;15174;48.190;11.462;2024-03-06T12:40:02;15.07;;;7.60;;
27792;SDS011;15174;48.190;11.462;2024-03-06T12:42:38;32.05;;;13.88;;
27792;SDS011;15174;48.190;11.462;2024-03-06T12:45:04;20.60;;;10.02;;
27792;SDS011;15174;48.190;11.462;2024-03-06T12:47:32;21.02;;;10.32;;
27792;SDS011;15174;48.190;11.462;2024-03-06T12:49:58;24.90;;;10.68;;
27792;SDS011;15174;48.190;11.462;2024-03-06T12:52:24;23.30;;;10.75;;
27792;SDS011;15174;48.190;11.462;2024-03-06T12:54:50;23.05;;;10.55;;
27792;SDS011;15174;48.190;11.462;2024-03-06T12:57:16;25.17;;;11.32;;
27792;SDS011;15174;48.190;11.462;2024-03-06T12:59:43;23.63;;;10.80;;
27792;SDS011;15174;48.190;11.462;2024-03-06T13:02:09;23.45;;;11.38;;
27792;SDS011;15174;48.190;11.462;2024-03-06T13:04:35;20.80;;;10.35;;
27792;SDS011;15174;48.190;11.462;2024-03-06T13:07:01;31.95;;;10.93;;
27792;SDS011;15174;48.190;11.462;2024-03-06T13:09:27;23.23;;;10.80;;
27792;SDS011;15174;48.190;11.462;2024-03-06T13:11:53;24.88;;;10.98;;
27792;SDS011;15174;48.190;11.462;2024-03-06T13:14:19;27.00;;;11.27;;
27792;SDS011;15174;48.190;11.462;2024-03-06T13:16:46;22.33;;;10.63;;
27792;SDS011;15174;48.190;11.462;2024-03-06T13:19:12;24.98;;;11.15;;
27792;SDS011;15174;48.190;11.462;2024-03-06T13:21:38;26.83;;;10.70;;
27792;SDS011;15174;48.190;11.462;2024-03-06T13:24:04;22.10;;;10.50;;
27792;SDS011;15174;48.190;11.462;2024-03-06T13:26:30;22.13;;;11.52;;
27792;SDS011;15174;48.190;11.462;2024-03-06T13:28:56;21.13;;;10.23;;
27792;SDS011;15174;48.190;11.462;2024-03-06T13:31:22;25.25;;;10.80;;
27792;SDS011;15174;48.190;11.462;2024-03-06T13:33:48;20.63;;;10.02;;
27792;SDS011;15174;48.190;11.462;2024-03-06T13:36:14;18.95;;;8.80;;
27792;SDS011;15174;48.190;11.462;2024-03-06T13:38:40;21.10;;;10.05;;
27792;SDS011;15174;48.190;11.462;2024-03-06T13:41:06;19.23;;;9.57;;
27792;SDS011;15174;48.190;11.462;2024-03-06T13:43:32;17.73;;;8.55;;
27792;SDS011;15174;48.190;11.462;2024-03-06T13:45:58;20.63;;;10.10;;
27792;SDS011;15174;48.190;11.462;2024-03-06T13:48:24;22.02;;;10.30;;
27792;SDS011;15174;48.190;11.462;2024-03-06T13:50:50;24.30;;;11.98;;
27792;SDS011;15174;48.190;11.462;2024-03-06T13:53:17;22.17;;;10.27;;
27792;SDS011;15174;48.190;11.462;2024-03-06T13:55:43;24.25;;;11.38;;
27792;SDS011;15174;48.190;11.462;2024-03-06T13:58:09;21.60;;;10.27;;
27792;SDS011;15174;48.190;11.462;2024-03-06T14:00:35;22.10;;;9.60;;
27792;SDS011;15174;48.190;11.462;2024-03-06T14:03:01;23.08;;;10.20;;
27792;SDS011;15174;48.190;11.462;2024-03-06T14:05:27;18.33;;;8.82;;
27792;SDS011;15174;48.190;11.462;2024-03-06T14:07:54;15.55;;;8.40;;
27792;SDS011;15174;48.190;11.462;2024-03-06T14:10:22;16.98;;;8.50;;
27792;SDS011;15174;48.190;11.462;2024-03-06T14:12:49;19.33;;;8.83;;
27792;SDS011;15174;48.190;11.462;2024-03-06T14:15:19;14.98;;;8.18;;
27792;SDS011;15174;48.190;11.462;2024-03-06T14:17:45;14.13;;;7.90;;
27792;SDS011;15174;48.190;11.462;2024-03-06T14:20:11;12.48;;;6.82;;
27792;SDS011;15174;48.190;11.462;2024-03-06T14:22:37;15.55;;;9.02;;